createdAt,value
2022-10-09T00:00:20.232Z,34.40
2022-10-09T00:03:12.444Z,29.50
2022-10-09T00:05:45.108Z,32.50
2022-10-09T00:08:17.300Z,25.10
2022-10-09T00:10:49.903Z,52.20
2022-10-09T00:13:22.455Z,41.70
2022-10-09T00:15:54.653Z,40.10
2022-10-09T00:18:26.830Z,36.20
2022-10-09T00:20:59.415Z,37.90
2022-10-09T00:23:32.579Z,39.50
2022-10-09T00:26:05.155Z,36.20
2022-10-09T00:28:38.860Z,32.70
2022-10-09T00:31:13.063Z,31.60
2022-10-09T00:33:45.638Z,29.40
2022-10-09T00:36:20.071Z,32.50
2022-10-09T00:38:53.103Z,28.80
2022-10-09T00:41:28.674Z,28.60
2022-10-09T00:44:03.327Z,24.90
2022-10-09T00:46:46.474Z,26.90
2022-10-09T00:49:26.464Z,27.40
2022-10-09T00:52:05.400Z,27.70
2022-10-09T00:54:41.864Z,28.10
2022-10-09T00:57:14.506Z,32.00
2022-10-09T00:59:47.133Z,29.60
2022-10-09T01:02:19.370Z,25.60
2022-10-09T01:04:51.588Z,27.10
2022-10-09T01:07:36.733Z,25.20
2022-10-09T01:10:18.754Z,29.10
2022-10-09T01:12:56.448Z,22.40
2022-10-09T01:15:32.827Z,31.70
2022-10-09T01:18:13.155Z,20.00
2022-10-09T01:20:51.085Z,22.80
2022-10-09T01:23:50.384Z,23.20
2022-10-09T01:26:36.172Z,21.70
2022-10-09T01:29:11.944Z,17.60
2022-10-09T01:34:18.896Z,27.80
2022-10-09T01:36:52.819Z,21.10
2022-10-09T01:39:26.725Z,19.90
2022-10-09T01:41:59.485Z,24.00
2022-10-09T01:44:33.754Z,28.70
2022-10-09T01:47:06.595Z,22.20
2022-10-09T01:49:48.704Z,26.10
2022-10-09T01:52:41.493Z,23.00
2022-10-09T01:55:35.620Z,21.50
2022-10-09T01:58:16.819Z,28.60
2022-10-09T02:00:53.748Z,18.20
2022-10-09T02:03:28.632Z,23.90
2022-10-09T02:06:02.357Z,19.60
2022-10-09T02:08:36.208Z,22.40
2022-10-09T02:11:10.990Z,21.10
2022-10-09T02:13:45.044Z,20.90
2022-10-09T02:16:22.662Z,18.30
2022-10-09T02:18:59.784Z,22.50
2022-10-09T02:21:39.250Z,23.50
2022-10-09T02:24:15.817Z,20.60
2022-10-09T02:26:48.502Z,25.80
2022-10-09T02:29:21.343Z,23.60
2022-10-09T02:31:53.875Z,22.50
2022-10-09T02:34:26.403Z,21.20
2022-10-09T02:36:58.544Z,22.80
2022-10-09T02:39:30.794Z,18.20
2022-10-09T02:42:03.026Z,23.80
2022-10-09T02:44:35.354Z,26.50
2022-10-09T02:47:07.597Z,23.60
2022-10-09T02:49:39.955Z,18.00
2022-10-09T02:52:12.356Z,17.30
2022-10-09T02:54:44.545Z,22.60
2022-10-09T02:57:16.810Z,27.00
2022-10-09T02:59:49.058Z,17.40
2022-10-09T03:02:21.588Z,17.00
2022-10-09T03:04:54.048Z,23.70
2022-10-09T03:07:26.393Z,23.70
2022-10-09T03:09:58.995Z,17.90
2022-10-09T03:12:31.220Z,18.60
2022-10-09T03:15:03.419Z,22.90
2022-10-09T03:17:35.590Z,21.00
2022-10-09T03:20:09.137Z,23.70
2022-10-09T03:22:41.355Z,16.70
2022-10-09T03:25:13.733Z,17.40
2022-10-09T03:27:46.199Z,19.30
2022-10-09T03:30:18.639Z,20.50
2022-10-09T03:32:51.119Z,21.40
2022-10-09T03:35:23.734Z,21.10
2022-10-09T03:37:55.981Z,21.90
2022-10-09T03:40:28.198Z,21.20
2022-10-09T03:43:00.438Z,16.80
2022-10-09T03:45:32.753Z,19.40
2022-10-09T03:48:04.964Z,17.70
2022-10-09T03:50:38.369Z,20.10
2022-10-09T03:53:12.217Z,16.50
2022-10-09T03:55:44.891Z,15.60
2022-10-09T03:58:17.161Z,17.10
2022-10-09T04:00:50.789Z,15.30
2022-10-09T04:03:23.458Z,21.30
2022-10-09T04:05:55.664Z,22.90
2022-10-09T04:08:28.335Z,16.60
2022-10-09T04:11:01.666Z,17.20
2022-10-09T04:13:33.931Z,20.40
2022-10-09T04:16:06.800Z,21.80
2022-10-09T04:18:39.573Z,20.20
2022-10-09T04:21:13.238Z,17.40
2022-10-09T04:23:45.420Z,21.00
2022-10-09T04:26:17.687Z,18.50
2022-10-09T04:28:49.970Z,20.60
2022-10-09T04:31:22.242Z,17.80
2022-10-09T04:33:57.561Z,19.80
2022-10-09T04:36:29.721Z,18.00
2022-10-09T04:39:01.975Z,18.50
2022-10-09T04:41:38.109Z,22.90
2022-10-09T04:44:10.824Z,17.50
2022-10-09T04:46:43.466Z,17.70
2022-10-09T04:49:16.428Z,14.60
2022-10-09T04:51:48.611Z,15.30
2022-10-09T04:54:20.908Z,16.30
2022-10-09T04:56:53.124Z,13.30
2022-10-09T04:59:25.333Z,14.40
2022-10-09T05:01:57.600Z,14.40
2022-10-09T05:04:30.072Z,16.70
2022-10-09T05:07:02.364Z,17.10
2022-10-09T05:09:34.826Z,15.40
2022-10-09T05:12:07.353Z,21.60
2022-10-09T05:14:39.660Z,16.90
2022-10-09T05:17:14.629Z,21.70
2022-10-09T05:19:47.396Z,23.60
2022-10-09T05:22:19.621Z,22.30
2022-10-09T05:24:51.847Z,17.70
2022-10-09T05:27:24.035Z,22.50
2022-10-09T05:29:56.268Z,20.40
2022-10-09T05:32:28.429Z,15.30
2022-10-09T05:35:00.605Z,22.50
2022-10-09T05:37:32.808Z,15.60
2022-10-09T05:40:05.188Z,35.30
2022-10-09T05:42:37.460Z,17.50
2022-10-09T05:45:11.762Z,15.70
2022-10-09T05:47:43.936Z,21.90
2022-10-09T05:50:16.173Z,14.30
2022-10-09T05:52:48.651Z,14.80
2022-10-09T05:55:21.156Z,12.10
2022-10-09T05:57:53.954Z,15.70
2022-10-09T06:00:26.276Z,12.40
2022-10-09T06:02:58.540Z,12.20
2022-10-09T06:05:30.746Z,14.10
2022-10-09T06:08:02.940Z,13.00
2022-10-09T06:10:35.207Z,12.50
2022-10-09T06:13:07.412Z,14.20
2022-10-09T06:15:39.585Z,15.10
2022-10-09T06:18:11.743Z,16.70
2022-10-09T06:20:54.067Z,13.20
2022-10-09T06:23:26.528Z,13.20
2022-10-09T06:26:00.678Z,12.90
2022-10-09T06:28:35.076Z,16.40
2022-10-09T06:31:09.608Z,16.60
2022-10-09T06:33:43.483Z,16.80
2022-10-09T06:36:17.823Z,15.80
2022-10-09T06:38:50.371Z,13.20
2022-10-09T06:41:24.357Z,22.30
2022-10-09T06:43:58.862Z,20.40
2022-10-09T06:46:32.952Z,13.50
2022-10-09T06:49:06.021Z,13.20
2022-10-09T06:51:38.664Z,11.50
2022-10-09T06:54:14.516Z,10.70
2022-10-09T06:56:47.385Z,14.40
2022-10-09T06:59:19.723Z,23.20
2022-10-09T07:01:51.971Z,12.80
2022-10-09T07:04:24.188Z,13.80
2022-10-09T07:06:56.763Z,12.70
2022-10-09T07:09:31.261Z,13.10
2022-10-09T07:12:03.412Z,10.50
2022-10-09T07:14:35.593Z,10.40
2022-10-09T07:17:07.777Z,13.20
2022-10-09T07:19:40.024Z,10.30
2022-10-09T07:22:12.211Z,15.10
2022-10-09T07:24:44.449Z,10.40
2022-10-09T07:27:16.584Z,9.10
2022-10-09T07:29:48.854Z,13.10
2022-10-09T07:32:21.104Z,12.30
2022-10-09T07:34:53.341Z,9.70
2022-10-09T07:37:25.533Z,16.90
2022-10-09T07:39:57.690Z,13.30
2022-10-09T07:42:29.927Z,12.10
2022-10-09T07:45:02.162Z,15.90
2022-10-09T07:47:34.455Z,11.20
2022-10-09T07:50:07.776Z,13.50
2022-10-09T07:52:39.952Z,13.40
2022-10-09T07:55:12.484Z,10.60
2022-10-09T07:57:44.864Z,10.40
2022-10-09T08:00:17.834Z,10.50
2022-10-09T08:02:50.318Z,14.50
2022-10-09T08:05:22.719Z,14.80
2022-10-09T08:07:54.908Z,13.50
2022-10-09T08:10:27.232Z,11.50
2022-10-09T08:12:59.671Z,12.40
2022-10-09T08:15:32.226Z,12.30
2022-10-09T08:18:04.440Z,8.90
2022-10-09T08:20:36.615Z,11.00
2022-10-09T08:23:09.177Z,13.40
2022-10-09T08:25:41.568Z,10.60
2022-10-09T08:28:13.858Z,9.60
2022-10-09T08:30:46.135Z,9.40
2022-10-09T08:33:21.999Z,14.40
2022-10-09T08:35:55.176Z,12.60
2022-10-09T08:38:46.225Z,13.30
2022-10-09T08:41:30.982Z,9.60
2022-10-09T08:44:07.701Z,10.30
2022-10-09T08:46:51.319Z,11.90
2022-10-09T08:49:29.790Z,9.90
2022-10-09T08:52:08.275Z,12.70
2022-10-09T08:54:42.533Z,9.20
2022-10-09T08:57:16.978Z,9.40
2022-10-09T08:59:49.347Z,12.70
2022-10-09T09:02:34.918Z,12.40
2022-10-09T09:05:29.328Z,9.60
2022-10-09T09:08:08.507Z,9.90
2022-10-09T09:10:48.277Z,10.40
2022-10-09T09:13:41.109Z,10.30
2022-10-09T09:16:20.545Z,13.50
2022-10-09T09:19:05.977Z,17.50
2022-10-09T09:21:48.784Z,10.10
2022-10-09T09:24:26.077Z,8.70
2022-10-09T09:27:04.349Z,13.40
2022-10-09T09:29:44.485Z,9.30
2022-10-09T09:32:22.650Z,10.60
2022-10-09T09:35:02.639Z,11.40
2022-10-09T09:37:34.920Z,13.10
2022-10-09T09:43:17.457Z,11.40
2022-10-09T09:45:53.427Z,9.70
2022-10-09T09:48:34.800Z,8.40
2022-10-09T09:51:28.081Z,14.00
2022-10-09T09:54:05.060Z,8.80
2022-10-09T09:57:10.220Z,11.60
2022-10-09T09:59:37.941Z,12.10
2022-10-09T10:02:18.358Z,10.50
2022-10-09T10:04:56.705Z,14.10
2022-10-09T10:07:34.512Z,11.10
2022-10-09T10:10:17.153Z,9.80
2022-10-09T10:12:58.396Z,9.90
2022-10-09T10:15:32.608Z,16.70
2022-10-09T10:18:07.433Z,11.60
2022-10-09T10:20:48.733Z,12.40
2022-10-09T10:23:35.691Z,12.00
2022-10-09T10:26:15.985Z,9.50
2022-10-09T10:28:55.209Z,10.50
2022-10-09T10:31:42.636Z,10.00
2022-10-09T10:34:21.435Z,9.90
2022-10-09T10:37:02.565Z,10.00
2022-10-09T10:39:42.813Z,11.90
2022-10-09T10:42:20.816Z,9.60
2022-10-09T10:44:59.594Z,26.20
2022-10-09T10:47:36.622Z,8.80
2022-10-09T10:50:15.952Z,18.30
2022-10-09T10:53:00.460Z,8.50
2022-10-09T10:55:43.791Z,6.70
2022-10-09T10:58:25.901Z,7.90
2022-10-09T11:01:13.614Z,7.70
2022-10-09T11:04:04.837Z,9.20
2022-10-09T11:06:46.587Z,8.30
2022-10-09T11:09:28.885Z,7.40
2022-10-09T11:12:19.580Z,6.70
2022-10-09T11:15:06.307Z,8.90
2022-10-09T11:17:48.281Z,6.70
2022-10-09T11:20:45.727Z,9.30
2022-10-09T11:23:26.930Z,8.30
2022-10-09T11:26:07.483Z,6.80
2022-10-09T11:28:45.055Z,8.90
2022-10-09T11:31:21.408Z,8.10
2022-10-09T11:34:00.160Z,7.50
2022-10-09T11:36:39.969Z,8.20
2022-10-09T11:39:18.375Z,7.90
2022-10-09T11:41:52.951Z,7.60
2022-10-09T11:44:39.813Z,9.60
2022-10-09T11:47:22.932Z,7.20
2022-10-09T11:50:07.867Z,5.40
2022-10-09T11:52:49.009Z,8.00
2022-10-09T11:55:24.057Z,6.00
2022-10-09T11:57:56.759Z,10.40
2022-10-09T12:00:39.356Z,10.80
2022-10-09T12:03:33.746Z,6.00
2022-10-09T12:06:13.395Z,7.20
2022-10-09T12:08:56.327Z,5.90
2022-10-09T12:11:29.914Z,16.80
2022-10-09T12:14:03.957Z,6.10
2022-10-09T12:16:43.067Z,6.60
2022-10-09T12:19:23.936Z,5.30
2022-10-09T12:22:04.278Z,5.90
2022-10-09T12:24:42.492Z,8.80
2022-10-09T12:27:22.240Z,5.80
2022-10-09T12:29:57.936Z,8.00
2022-10-09T12:32:33.631Z,7.10
2022-10-09T12:35:19.632Z,5.50
2022-10-09T12:37:51.835Z,8.70
2022-10-09T12:40:27.571Z,6.00
2022-10-09T12:43:01.879Z,9.50
2022-10-09T12:45:34.521Z,9.00
2022-10-09T12:48:15.024Z,8.60
2022-10-09T12:50:47.192Z,8.20
2022-10-09T12:53:22.626Z,9.00
2022-10-09T12:58:31.385Z,20.70
2022-10-09T13:01:07.849Z,7.40
2022-10-09T13:03:41.948Z,6.90
2022-10-09T13:06:19.556Z,6.90
2022-10-09T13:08:58.974Z,6.60
2022-10-09T13:11:38.126Z,5.60
2022-10-09T13:14:24.478Z,6.70
2022-10-09T13:16:56.971Z,6.40
2022-10-09T13:19:30.804Z,9.50
2022-10-09T13:22:17.363Z,9.40
2022-10-09T13:24:51.627Z,7.80
2022-10-09T13:27:25.512Z,6.30
2022-10-09T13:29:57.770Z,9.40
2022-10-09T13:32:30.026Z,6.90
2022-10-09T13:35:02.259Z,13.90
2022-10-09T13:37:34.611Z,7.40
2022-10-09T13:40:08.816Z,8.60
2022-10-09T13:42:41.129Z,7.40
2022-10-09T13:45:14.526Z,7.00
2022-10-09T13:47:47.068Z,4.80
2022-10-09T13:50:19.862Z,7.50
2022-10-09T13:52:52.141Z,6.70
2022-10-09T13:55:24.469Z,6.10
2022-10-09T13:57:56.627Z,9.20
2022-10-09T14:00:29.545Z,5.60
2022-10-09T14:03:01.727Z,8.30
2022-10-09T14:05:33.878Z,6.20
2022-10-09T14:08:06.849Z,7.60
2022-10-09T14:10:42.121Z,9.00
2022-10-09T14:13:14.666Z,4.40
2022-10-09T14:15:46.854Z,5.20
2022-10-09T14:18:19.101Z,6.20
2022-10-09T14:20:52.126Z,12.40
2022-10-09T14:23:24.299Z,5.40
2022-10-09T14:25:56.491Z,9.70
2022-10-09T14:28:28.791Z,7.20
2022-10-09T14:31:01.156Z,7.00
2022-10-09T14:33:33.491Z,7.60
2022-10-09T14:36:10.526Z,7.50
2022-10-09T14:38:44.002Z,6.70
2022-10-09T14:41:18.087Z,6.80
2022-10-09T14:43:56.885Z,7.70
2022-10-09T14:46:33.876Z,6.40
2022-10-09T14:49:08.407Z,8.00
2022-10-09T14:51:42.101Z,6.00
2022-10-09T14:54:15.274Z,9.30
2022-10-09T14:56:47.619Z,5.70
2022-10-09T14:59:19.901Z,10.40
2022-10-09T15:01:52.031Z,5.70
2022-10-09T15:04:24.262Z,15.90
2022-10-09T15:06:56.428Z,5.80
2022-10-09T15:09:28.785Z,9.60
2022-10-09T15:12:00.960Z,5.30
2022-10-09T15:14:33.277Z,6.50
2022-10-09T15:17:05.475Z,6.50
2022-10-09T15:19:37.875Z,5.30
2022-10-09T15:22:10.230Z,7.80
2022-10-09T15:24:42.744Z,6.30
2022-10-09T15:27:15.005Z,12.30
2022-10-09T15:29:47.260Z,6.90
2022-10-09T15:32:19.530Z,9.20
2022-10-09T15:34:51.939Z,10.30
2022-10-09T15:37:24.225Z,14.80
2022-10-09T15:39:56.566Z,8.80
2022-10-09T15:42:28.771Z,11.50
2022-10-09T15:45:00.963Z,11.00
2022-10-09T15:47:50.376Z,11.30
2022-10-09T15:50:23.393Z,8.90
2022-10-09T15:52:57.072Z,10.80
2022-10-09T15:55:29.525Z,13.00
2022-10-09T15:58:01.804Z,9.10
2022-10-09T16:00:37.247Z,9.10
2022-10-09T16:03:11.085Z,9.40
2022-10-09T16:05:45.050Z,16.50
2022-10-09T16:08:19.041Z,13.30
2022-10-09T16:10:52.278Z,9.30
2022-10-09T16:13:25.470Z,10.00
2022-10-09T16:15:58.541Z,15.40
2022-10-09T16:18:30.727Z,8.30
2022-10-09T16:21:08.703Z,11.70
2022-10-09T16:23:40.932Z,14.00
2022-10-09T16:26:15.127Z,14.00
2022-10-09T16:28:47.839Z,11.00
2022-10-09T16:31:25.034Z,10.70
2022-10-09T16:33:57.915Z,11.50
2022-10-09T16:36:30.392Z,15.70
2022-10-09T16:39:03.136Z,12.50
2022-10-09T16:41:39.552Z,9.00
2022-10-09T16:44:17.180Z,10.30
2022-10-09T16:46:49.481Z,11.00
2022-10-09T16:49:24.291Z,12.20
2022-10-09T16:51:57.444Z,9.50
2022-10-09T16:54:29.636Z,8.90
2022-10-09T16:57:04.757Z,10.40
2022-10-09T16:59:37.371Z,9.60
2022-10-09T17:02:11.743Z,9.90
2022-10-09T17:04:44.469Z,10.00
2022-10-09T17:07:16.769Z,12.20
2022-10-09T17:09:49.049Z,8.10
2022-10-09T17:12:22.957Z,12.10
2022-10-09T17:14:57.479Z,9.30
2022-10-09T17:17:29.744Z,9.20
2022-10-09T17:20:01.954Z,11.00
2022-10-09T17:22:34.161Z,10.30
2022-10-09T17:25:07.242Z,12.50
2022-10-09T17:27:39.502Z,11.10
2022-10-09T17:30:13.927Z,13.20
2022-10-09T17:32:46.211Z,9.80
2022-10-09T17:35:18.667Z,10.90
2022-10-09T17:37:50.846Z,10.00
2022-10-09T17:40:24.861Z,13.20
2022-10-09T17:43:00.040Z,10.20
2022-10-09T17:45:35.828Z,14.70
2022-10-09T17:48:11.545Z,12.40
2022-10-09T17:50:50.986Z,11.60
2022-10-09T17:53:23.632Z,9.80
2022-10-09T17:55:58.339Z,9.20
2022-10-09T17:58:30.587Z,12.30
2022-10-09T18:01:08.226Z,23.70
2022-10-09T18:03:40.494Z,12.00
2022-10-09T18:06:17.288Z,14.30
2022-10-09T18:08:49.664Z,27.80
2022-10-09T18:11:23.216Z,13.20
2022-10-09T18:13:55.935Z,8.60
2022-10-09T18:16:35.923Z,8.80
2022-10-09T18:19:13.225Z,10.90
2022-10-09T18:21:48.189Z,8.10
2022-10-09T18:24:20.792Z,11.50
2022-10-09T18:26:53.003Z,16.00
2022-10-09T18:29:25.431Z,14.40
2022-10-09T18:31:58.065Z,17.50
2022-10-09T18:34:30.268Z,7.40
2022-10-09T18:37:02.520Z,14.60
2022-10-09T18:39:34.684Z,12.70
2022-10-09T18:42:07.518Z,8.80
2022-10-09T18:44:41.878Z,9.20
2022-10-09T18:47:18.340Z,11.70
2022-10-09T18:49:53.839Z,13.20
2022-10-09T18:52:26.416Z,11.00
2022-10-09T18:54:59.906Z,22.40
2022-10-09T18:57:33.535Z,12.80
2022-10-09T19:00:06.471Z,11.00
2022-10-09T19:05:12.359Z,19.70
2022-10-09T19:07:44.608Z,15.80
2022-10-09T19:10:16.880Z,12.40
2022-10-09T19:12:50.328Z,13.60
2022-10-09T19:15:22.872Z,12.10
2022-10-09T19:17:55.144Z,13.20
2022-10-09T19:20:29.194Z,13.80
2022-10-09T19:23:01.391Z,17.10
2022-10-09T19:25:33.585Z,20.60
2022-10-09T19:28:05.789Z,14.10
2022-10-09T19:30:40.097Z,14.00
2022-10-09T19:33:12.641Z,17.60
2022-10-09T19:35:53.033Z,17.80
2022-10-09T19:38:26.932Z,37.50
2022-10-09T19:41:03.812Z,16.70
2022-10-09T19:43:36.343Z,20.40
2022-10-09T19:46:10.179Z,22.80
2022-10-09T19:48:42.350Z,14.20
2022-10-09T19:51:16.670Z,13.90
2022-10-09T19:53:50.099Z,16.40
2022-10-09T19:56:26.263Z,11.90
2022-10-09T19:58:59.524Z,11.00
2022-10-09T20:01:32.912Z,14.20
2022-10-09T20:04:08.893Z,10.30
2022-10-09T20:09:13.655Z,12.80
2022-10-09T20:11:46.066Z,10.50
2022-10-09T20:14:18.381Z,12.60
2022-10-09T20:16:50.535Z,10.90
2022-10-09T20:19:23.252Z,9.00
2022-10-09T20:21:55.415Z,15.60
2022-10-09T20:24:27.679Z,8.60
2022-10-09T20:27:00.132Z,12.60
2022-10-09T20:29:32.399Z,10.50
2022-10-09T20:32:04.621Z,7.90
2022-10-09T20:34:36.805Z,9.60
2022-10-09T20:37:08.912Z,8.50
2022-10-09T20:39:41.124Z,8.40
2022-10-09T20:42:13.268Z,9.30
2022-10-09T20:44:45.537Z,9.10
2022-10-09T20:47:17.819Z,10.70
2022-10-09T20:49:50.994Z,9.10
2022-10-09T20:52:23.154Z,11.80
2022-10-09T20:54:55.403Z,11.00
2022-10-09T20:57:27.713Z,8.20
2022-10-09T21:00:00.118Z,8.70
2022-10-09T21:02:32.523Z,13.30
2022-10-09T21:05:04.774Z,8.90
2022-10-09T21:07:36.955Z,10.00
2022-10-09T21:10:10.980Z,8.90
2022-10-09T21:12:43.383Z,7.00
2022-10-09T21:15:15.543Z,7.80
2022-10-09T21:17:47.713Z,8.40
2022-10-09T21:20:20.118Z,8.30
2022-10-09T21:22:52.652Z,12.00
2022-10-09T21:25:25.096Z,12.00
2022-10-09T21:27:57.283Z,8.60
2022-10-09T21:30:30.780Z,8.60
2022-10-09T21:33:03.007Z,7.50
2022-10-09T21:35:39.303Z,12.80
2022-10-09T21:38:14.355Z,32.60
2022-10-09T21:40:47.334Z,9.00
2022-10-09T21:43:20.007Z,8.40
2022-10-09T21:45:53.219Z,9.00
2022-10-09T21:48:25.653Z,11.20
2022-10-09T21:50:58.264Z,9.30
2022-10-09T21:53:30.744Z,8.70
2022-10-09T21:56:05.669Z,9.90
2022-10-09T21:58:38.336Z,7.40
2022-10-09T22:01:10.904Z,8.30
2022-10-09T22:03:43.677Z,6.70
2022-10-09T22:06:19.090Z,9.80
2022-10-09T22:08:51.726Z,9.40
2022-10-09T22:11:23.917Z,8.40
2022-10-09T22:13:57.859Z,15.70
2022-10-09T22:16:30.227Z,9.10
2022-10-09T22:19:03.114Z,10.20
2022-10-09T22:21:35.321Z,9.60
2022-10-09T22:24:07.705Z,12.50
2022-10-09T22:26:39.821Z,12.10
2022-10-09T22:29:11.942Z,8.40
2022-10-09T22:31:44.096Z,13.60
2022-10-09T22:34:16.534Z,7.90
2022-10-09T22:36:48.957Z,8.70
2022-10-09T22:39:21.144Z,9.70
2022-10-09T22:41:53.445Z,13.50
2022-10-09T22:44:25.586Z,10.30
2022-10-09T22:46:57.793Z,8.30
2022-10-09T22:49:29.883Z,10.00
2022-10-09T22:52:02.147Z,9.20
2022-10-09T22:54:34.327Z,7.70
2022-10-09T22:57:06.491Z,7.90
2022-10-09T22:59:38.647Z,12.40
2022-10-09T23:02:10.796Z,10.80
2022-10-09T23:04:42.957Z,6.00
2022-10-09T23:07:15.122Z,6.50
2022-10-09T23:09:47.296Z,10.50
2022-10-09T23:12:19.491Z,9.40
2022-10-09T23:14:51.984Z,8.70
2022-10-09T23:17:24.156Z,7.60
2022-10-09T23:19:56.322Z,11.20
2022-10-09T23:22:28.447Z,12.30
2022-10-09T23:25:00.787Z,10.40
2022-10-09T23:27:33.025Z,8.10
2022-10-09T23:30:05.491Z,13.00
2022-10-09T23:32:37.671Z,6.80
2022-10-09T23:35:10.959Z,11.20
2022-10-09T23:37:43.120Z,10.70
2022-10-09T23:40:15.391Z,8.40
2022-10-09T23:42:47.982Z,5.80
2022-10-09T23:45:20.367Z,12.30
2022-10-09T23:47:52.593Z,9.00
2022-10-09T23:50:24.741Z,6.40
2022-10-09T23:52:56.892Z,21.60
2022-10-09T23:55:29.111Z,5.00
2022-10-09T23:58:01.403Z,6.00
